Friendship S — J8B5036 — position and weather

sailwx.info

Track history (hours):
 
Tides and Currents Weather Stations Pressure Air Temp Water Temp Dewpoint Dewpoint Depression Visibility Wind Speed Wind Dir Waves Ship Positions

Friendship S

Last reported at 2018-Jan-18 11:36 UTC. Time now 2018-Jan-18 13:53 UTC.
Position N 38°38' E 013°04'.

Length 80 m; draft 3.7 m.

Type: Cargo ship. MMSI: 375494000.

Date/timePositionNaut miles runAvg speedWind from/ knotsBaromVisibWave heightAir tempDewpointWater temp
2018-Jan-18 11:36N 38°38' E 013°04'1 6.6
2018-Jan-18 11:28N 38°37' E 013°04'4 6.4
2018-Jan-18 10:55N 38°34' E 013°07'3 6.3
2018-Jan-18 10:29N 38°32' E 013°08'3 6.3
2018-Jan-18 10:00N 38°30' E 013°11'3 6.1
2018-Jan-18 09:30N 38°27' E 013°13'3 6.2
2018-Jan-18 09:00N 38°24' E 013°15'3 6.5
2018-Jan-18 08:30N 38°22' E 013°17'3 6.7
2018-Jan-18 08:00N 38°19' E 013°19'3 6.5
2018-Jan-18 07:30N 38°16' E 013°21'3 6.2
2018-Jan-18 07:00N 38°13' E 013°23'3 6.8
2018-Jan-18 06:30N 38°10' E 013°25'3 6.5
2018-Jan-18 06:00N 38°07' E 013°24'2 3.2
2018-Jan-18 05:30N 38°08' E 013°22'0 0.0
2018-Jan-18 05:00N 38°08' E 013°22'0 0.0
2018-Jan-18 04:30N 38°08' E 013°22'0 0.0
2018-Jan-18 04:00N 38°08' E 013°22'0 0.0
2018-Jan-18 03:30N 38°08' E 013°22'0 0.0
2018-Jan-18 03:00N 38°08' E 013°22'0 0.0
2018-Jan-18 02:30N 38°08' E 013°22'0 0.0
2018-Jan-18 02:00N 38°08' E 013°22'0 0.0
2018-Jan-18 01:30N 38°08' E 013°22'0 0.0
2018-Jan-18 01:00N 38°08' E 013°22'0 0.0
2018-Jan-17 23:59N 38°08' E 013°22'0 0.0
2018-Jan-17 23:56N 38°08' E 013°22'  
2018-Jan-10 05:03N 39°55' E 024°02'2 9.1
2018-Jan-10 04:48N 39°56' E 024°05'4 9.0
2018-Jan-10 04:23N 39°56' E 024°10'3 9.1
2018-Jan-10 04:00N 39°57' E 024°14'21 9.4
2018-Jan-10 01:44N 39°60' E 024°41'3 9.7
2018-Jan-10 01:22N 40°00' E 024°46'710.0
2018-Jan-10 00:43N 40°01' E 024°54'210.0
2018-Jan-10 00:30N 40°02' E 024°57'  
Track history (hours):
 
Tides and Currents Weather Stations Pressure Air Temp Water Temp Dewpoint Dewpoint Depression Visibility Wind Speed Wind Dir Waves Ship Positions

Friendship S

Last reported at 2018-Jan-18 11:36 UTC. Time now 2018-Jan-18 13:53 UTC.
Position N 38°38' E 013°04'.

Length 80 m; draft 3.7 m.

Type: Cargo ship. MMSI: 375494000.

Date/timePositionNaut miles runAvg speedWind from/ knotsBaromVisibWave heightAir tempDewpointWater temp
2018-Jan-18 11:36N 38°38' E 013°04'1 6.6
2018-Jan-18 11:28N 38°37' E 013°04'4 6.4
2018-Jan-18 10:55N 38°34' E 013°07'3 6.3
2018-Jan-18 10:29N 38°32' E 013°08'3 6.3
2018-Jan-18 10:00N 38°30' E 013°11'3 6.1
2018-Jan-18 09:30N 38°27' E 013°13'3 6.2
2018-Jan-18 09:00N 38°24' E 013°15'3 6.5
2018-Jan-18 08:30N 38°22' E 013°17'3 6.7
2018-Jan-18 08:00N 38°19' E 013°19'3 6.5
2018-Jan-18 07:30N 38°16' E 013°21'3 6.2
2018-Jan-18 07:00N 38°13' E 013°23'3 6.8
2018-Jan-18 06:30N 38°10' E 013°25'3 6.5
2018-Jan-18 06:00N 38°07' E 013°24'2 3.2
2018-Jan-18 05:30N 38°08' E 013°22'0 0.0
2018-Jan-18 05:00N 38°08' E 013°22'0 0.0
2018-Jan-18 04:30N 38°08' E 013°22'0 0.0
2018-Jan-18 04:00N 38°08' E 013°22'0 0.0
2018-Jan-18 03:30N 38°08' E 013°22'0 0.0
2018-Jan-18 03:00N 38°08' E 013°22'0 0.0
2018-Jan-18 02:30N 38°08' E 013°22'0 0.0
2018-Jan-18 02:00N 38°08' E 013°22'0 0.0
2018-Jan-18 01:30N 38°08' E 013°22'0 0.0
2018-Jan-18 01:00N 38°08' E 013°22'0 0.0
2018-Jan-17 23:59N 38°08' E 013°22'0 0.0
2018-Jan-17 23:56N 38°08' E 013°22'  
2018-Jan-10 05:03N 39°55' E 024°02'2 9.1
2018-Jan-10 04:48N 39°56' E 024°05'4 9.0
2018-Jan-10 04:23N 39°56' E 024°10'3 9.1
2018-Jan-10 04:00N 39°57' E 024°14'21 9.4
2018-Jan-10 01:44N 39°60' E 024°41'3 9.7
2018-Jan-10 01:22N 40°00' E 024°46'710.0
2018-Jan-10 00:43N 40°01' E 024°54'210.0
2018-Jan-10 00:30N 40°02' E 024°57'  

Dump ship's entire track history